createdAt,value
2022-11-25T00:01:22.361Z,4.90
2022-11-25T00:08:45.476Z,4.90
2022-11-25T00:11:12.949Z,4.90
2022-11-25T00:13:40.672Z,4.90
2022-11-25T00:16:09.982Z,4.90
2022-11-25T00:21:13.631Z,4.90
2022-11-25T00:26:12.728Z,5.00
2022-11-25T00:28:40.751Z,5.00
2022-11-25T00:31:19.277Z,4.90
2022-11-25T00:36:29.808Z,4.80
2022-11-25T00:38:59.025Z,4.80
2022-11-25T00:41:45.104Z,4.70
2022-11-25T00:44:32.862Z,4.80
2022-11-25T00:47:00.169Z,4.80
2022-11-25T00:51:53.941Z,4.80
2022-11-25T01:01:41.791Z,4.90
2022-11-25T01:06:36.891Z,4.90
2022-11-25T01:09:05.582Z,4.90
2022-11-25T01:16:29.639Z,5.00
2022-11-25T01:18:57.970Z,5.00
2022-11-25T01:21:30.333Z,5.00
2022-11-25T01:26:25.015Z,5.00
2022-11-25T01:28:59.803Z,5.00
2022-11-25T01:31:29.584Z,5.00
2022-11-25T01:33:59.200Z,5.00
2022-11-25T01:38:55.637Z,5.00
2022-11-25T01:41:23.904Z,5.00
2022-11-25T01:44:15.939Z,5.00
2022-11-25T01:47:02.043Z,5.00
2022-11-25T01:49:40.776Z,5.00
2022-11-25T01:52:28.743Z,5.00
2022-11-25T01:55:10.846Z,5.00
2022-11-25T01:57:43.639Z,5.10
2022-11-25T02:02:37.930Z,5.00
2022-11-25T02:05:10.799Z,5.10
2022-11-25T02:07:40.600Z,5.10
2022-11-25T02:10:11.523Z,5.10
2022-11-25T02:12:40.733Z,4.90
2022-11-25T02:15:08.059Z,5.20
2022-11-25T02:17:35.129Z,5.20
2022-11-25T02:20:05.429Z,5.30
2022-11-25T02:22:52.123Z,5.20
2022-11-25T02:25:26.408Z,5.20
2022-11-25T02:28:07.733Z,5.20
2022-11-25T02:30:35.240Z,5.20
2022-11-25T02:33:02.477Z,5.20
2022-11-25T02:35:33.561Z,5.20
2022-11-25T02:38:08.827Z,5.30
2022-11-25T02:40:41.835Z,5.30
2022-11-25T02:45:48.844Z,5.40
2022-11-25T02:50:42.798Z,5.50
2022-11-25T02:53:09.389Z,5.60
2022-11-25T03:07:51.458Z,5.70
2022-11-25T03:10:18.190Z,5.70
2022-11-25T03:20:07.435Z,5.80
2022-11-25T03:22:34.176Z,5.80
2022-11-25T03:37:19.423Z,5.80
2022-11-25T03:44:40.550Z,5.80
2022-11-25T03:49:34.095Z,5.80
2022-11-25T03:52:01.057Z,5.80
2022-11-25T03:59:21.906Z,5.80
2022-11-25T04:09:11.914Z,5.90
2022-11-25T04:16:51.575Z,5.90
2022-11-25T04:29:13.362Z,6.20
2022-11-25T04:36:34.052Z,6.20
2022-11-25T04:46:24.880Z,6.30
2022-11-25T04:53:45.935Z,6.50
2022-11-25T04:56:18.438Z,6.50
2022-11-25T05:03:57.921Z,6.60
2022-11-25T05:06:24.963Z,6.60
2022-11-25T05:18:40.371Z,6.80
2022-11-25T05:23:34.127Z,6.90
2022-11-25T05:26:02.800Z,6.90
2022-11-25T05:28:30.660Z,6.90
2022-11-25T05:35:56.692Z,7.00
2022-11-25T05:43:17.870Z,7.00
2022-11-25T05:48:11.586Z,7.10
2022-11-25T05:50:38.696Z,7.10
2022-11-25T05:53:05.605Z,7.10
2022-11-25T05:55:32.259Z,7.10
2022-11-25T05:57:59.625Z,7.20
2022-11-25T06:00:27.067Z,7.20
2022-11-25T06:02:53.929Z,7.20
2022-11-25T06:10:16.713Z,7.30
2022-11-25T06:15:11.294Z,7.40
2022-11-25T06:20:07.203Z,7.40
2022-11-25T06:22:33.801Z,7.30
2022-11-25T06:25:03.516Z,7.40
2022-11-25T06:27:50.065Z,7.40
2022-11-25T06:32:44.644Z,7.30
2022-11-25T06:35:11.256Z,7.50
2022-11-25T06:37:38.289Z,7.50
2022-11-25T06:40:05.556Z,7.50
2022-11-25T06:54:47.256Z,7.70
2022-11-25T06:57:17.467Z,7.70
2022-11-25T07:02:14.488Z,7.70
2022-11-25T07:07:08.858Z,7.70
2022-11-25T07:24:18.638Z,7.90
2022-11-25T07:29:36.418Z,7.90
2022-11-25T07:34:35.416Z,7.70
2022-11-25T07:37:02.002Z,8.00
2022-11-25T07:44:22.647Z,7.90
2022-11-25T07:46:49.926Z,8.00
2022-11-25T07:49:19.203Z,8.00
2022-11-25T07:51:49.765Z,7.90
2022-11-25T07:54:17.135Z,8.00
2022-11-25T07:56:44.752Z,7.90
2022-11-25T07:59:17.663Z,8.00
2022-11-25T08:01:44.614Z,8.00
2022-11-25T08:04:18.286Z,8.00
2022-11-25T08:06:48.717Z,8.10
2022-11-25T08:09:19.179Z,8.10
2022-11-25T08:14:13.410Z,8.10
2022-11-25T08:19:11.424Z,8.20
2022-11-25T08:26:38.340Z,8.20
2022-11-25T08:29:06.839Z,8.30
2022-11-25T08:31:36.380Z,8.20
2022-11-25T08:36:31.373Z,8.30
2022-11-25T08:38:59.365Z,8.20
2022-11-25T08:41:37.087Z,8.20
2022-11-25T08:44:07.367Z,8.20
2022-11-25T08:46:36.534Z,8.30
2022-11-25T08:49:04.848Z,8.30
2022-11-25T08:51:33.788Z,8.30
2022-11-25T08:54:00.562Z,8.30
2022-11-25T08:56:27.472Z,8.30
2022-11-25T08:58:55.207Z,8.40
2022-11-25T09:01:23.353Z,8.50
2022-11-25T09:03:51.745Z,8.40
2022-11-25T09:06:19.230Z,8.50
2022-11-25T09:08:46.472Z,8.50
2022-11-25T09:11:14.163Z,8.60
2022-11-25T09:13:40.911Z,8.60
2022-11-25T09:21:11.823Z,8.60
2022-11-25T09:23:39.327Z,8.60
2022-11-25T09:26:07.898Z,8.70
2022-11-25T09:28:35.514Z,8.60
2022-11-25T09:31:09.791Z,8.70
2022-11-25T09:36:04.431Z,8.80
2022-11-25T09:41:04.961Z,8.80
2022-11-25T09:43:58.225Z,8.80
2022-11-25T09:46:49.944Z,8.90
2022-11-25T09:49:40.789Z,8.90
2022-11-25T09:52:27.188Z,8.90
2022-11-25T09:58:01.932Z,9.00
2022-11-25T10:00:38.590Z,8.90
2022-11-25T10:03:15.494Z,9.00
2022-11-25T10:06:03.207Z,9.00
2022-11-25T10:08:40.198Z,9.00
2022-11-25T10:11:22.409Z,9.10
2022-11-25T10:16:31.124Z,9.20
2022-11-25T10:19:06.165Z,9.20
2022-11-25T10:21:32.751Z,9.30
2022-11-25T10:26:35.627Z,9.40
2022-11-25T10:29:14.406Z,9.40
2022-11-25T10:31:44.526Z,9.40
2022-11-25T10:34:48.427Z,9.50
2022-11-25T10:37:30.575Z,9.60
2022-11-25T10:39:57.597Z,9.50
2022-11-25T10:42:26.885Z,9.20
2022-11-25T10:47:43.958Z,9.60
2022-11-25T10:50:19.572Z,9.40
2022-11-25T10:53:00.637Z,9.70
2022-11-25T10:55:29.873Z,9.60
2022-11-25T11:00:29.807Z,9.70
2022-11-25T11:02:58.031Z,9.70
2022-11-25T11:08:13.624Z,9.80
2022-11-25T11:13:22.966Z,9.70
2022-11-25T11:15:49.920Z,9.90
2022-11-25T11:18:27.259Z,9.80
2022-11-25T11:20:56.327Z,9.90
2022-11-25T11:23:24.328Z,9.90
2022-11-25T11:26:06.609Z,9.90
2022-11-25T11:28:36.968Z,10.00
2022-11-25T11:31:24.295Z,10.00
2022-11-25T11:36:57.096Z,10.00
2022-11-25T11:40:08.353Z,10.10
2022-11-25T11:42:49.590Z,10.20
2022-11-25T11:45:48.160Z,10.20
2022-11-25T11:48:17.435Z,10.30
2022-11-25T11:50:49.135Z,10.30
2022-11-25T11:53:44.850Z,10.20
2022-11-25T11:56:36.184Z,10.40
2022-11-25T11:59:53.422Z,10.40
2022-11-25T12:05:14.433Z,10.60
2022-11-25T12:08:13.185Z,10.90
2022-11-25T12:11:02.795Z,10.70
2022-11-25T12:14:01.220Z,10.80
2022-11-25T12:16:41.313Z,10.80
2022-11-25T12:19:17.049Z,10.80
2022-11-25T12:22:19.680Z,10.60
2022-11-25T12:24:58.125Z,10.70
2022-11-25T12:27:38.822Z,10.80
2022-11-25T12:30:10.321Z,10.80
2022-11-25T12:32:58.742Z,10.80
2022-11-25T12:35:33.856Z,10.80
2022-11-25T12:38:14.462Z,10.80
2022-11-25T12:40:49.700Z,10.60
2022-11-25T12:43:39.371Z,10.80
2022-11-25T12:46:30.582Z,10.80
2022-11-25T12:48:58.450Z,11.00
2022-11-25T12:52:08.299Z,10.90
2022-11-25T12:54:59.031Z,10.90
2022-11-25T13:00:43.401Z,10.80
2022-11-25T13:03:24.492Z,11.00
2022-11-25T13:06:33.620Z,11.10
2022-11-25T13:09:27.649Z,11.00
2022-11-25T13:12:20.041Z,11.00
2022-11-25T13:15:25.227Z,10.90
2022-11-25T13:17:57.333Z,10.80
2022-11-25T13:23:08.316Z,11.00
2022-11-25T13:25:40.611Z,11.00
2022-11-25T13:28:36.486Z,11.00
2022-11-25T13:31:23.087Z,11.00
2022-11-25T13:34:02.017Z,11.10
2022-11-25T13:36:52.616Z,11.10
2022-11-25T13:39:39.817Z,11.00
2022-11-25T13:42:23.500Z,11.10
2022-11-25T13:44:55.867Z,11.10
2022-11-25T13:54:50.392Z,11.10
2022-11-25T13:57:34.623Z,11.10
2022-11-25T14:00:07.085Z,11.20
2022-11-25T14:02:44.866Z,11.20
2022-11-25T14:05:11.742Z,11.20
2022-11-25T14:07:45.785Z,11.10
2022-11-25T14:10:26.480Z,11.00
2022-11-25T14:13:34.375Z,11.10
2022-11-25T14:16:21.914Z,11.10
2022-11-25T14:22:35.639Z,11.00
2022-11-25T14:25:26.875Z,11.00
2022-11-25T14:28:12.590Z,11.00
2022-11-25T14:30:54.462Z,11.00
2022-11-25T14:33:26.048Z,11.00
2022-11-25T14:36:00.171Z,10.90
2022-11-25T14:38:40.416Z,10.90
2022-11-25T14:41:17.966Z,10.90
2022-11-25T14:43:50.554Z,10.90
2022-11-25T14:46:26.134Z,10.90
2022-11-25T14:48:58.174Z,10.90
2022-11-25T14:51:26.866Z,10.80
2022-11-25T14:56:33.230Z,10.90
2022-11-25T14:59:00.396Z,10.80
2022-11-25T15:01:29.770Z,10.80
2022-11-25T15:04:05.883Z,10.80
2022-11-25T15:06:38.699Z,10.80
2022-11-25T15:09:19.777Z,10.80
2022-11-25T15:14:26.529Z,10.80
2022-11-25T15:16:54.236Z,10.70
2022-11-25T15:19:24.718Z,10.70
2022-11-25T15:25:05.669Z,10.70
2022-11-25T15:27:32.527Z,10.60
2022-11-25T15:32:29.212Z,10.50
2022-11-25T15:34:59.396Z,10.60
2022-11-25T15:40:31.824Z,10.60
2022-11-25T15:43:00.381Z,10.50
2022-11-25T15:45:35.763Z,10.50
2022-11-25T15:48:03.422Z,10.50
2022-11-25T15:50:32.491Z,10.50
2022-11-25T15:53:00.343Z,10.40
2022-11-25T15:55:36.641Z,10.40
2022-11-25T15:58:17.628Z,10.40
2022-11-25T16:01:07.161Z,10.40
2022-11-25T16:03:35.292Z,10.30
2022-11-25T16:06:02.828Z,10.30
2022-11-25T16:08:37.285Z,10.30
2022-11-25T16:11:16.990Z,10.30
2022-11-25T16:16:15.676Z,10.20
2022-11-25T16:19:17.969Z,10.20
2022-11-25T16:21:53.293Z,10.10
2022-11-25T16:24:27.643Z,10.10
2022-11-25T16:27:24.705Z,10.00
2022-11-25T16:32:27.422Z,10.00
2022-11-25T16:34:56.735Z,12.60
2022-11-25T16:42:20.695Z,9.90
2022-11-25T16:44:52.130Z,9.90
2022-11-25T16:47:20.135Z,9.80
2022-11-25T16:52:14.262Z,9.90
2022-11-25T16:54:41.739Z,9.90
2022-11-25T16:57:16.756Z,10.10
2022-11-25T16:59:45.165Z,9.90
2022-11-25T17:02:22.012Z,9.90
2022-11-25T17:04:49.335Z,10.00
2022-11-25T17:07:32.382Z,9.90
2022-11-25T17:09:59.648Z,9.90
2022-11-25T17:12:30.901Z,9.90
2022-11-25T17:14:59.817Z,9.80
2022-11-25T17:17:27.946Z,9.90
2022-11-25T17:19:54.675Z,9.90
2022-11-25T17:22:24.672Z,9.90
2022-11-25T17:24:51.718Z,9.90
2022-11-25T17:27:30.017Z,10.00
2022-11-25T17:29:58.529Z,10.00
2022-11-25T17:32:25.946Z,10.00
2022-11-25T17:34:52.969Z,10.00
2022-11-25T17:37:25.545Z,10.00
2022-11-25T17:39:54.015Z,10.00
2022-11-25T17:42:28.169Z,10.00
2022-11-25T17:44:54.808Z,10.00
2022-11-25T17:47:21.465Z,10.00
2022-11-25T17:49:49.310Z,9.90
2022-11-25T17:52:15.911Z,9.90
2022-11-25T17:54:42.559Z,10.00
2022-11-25T17:57:15.457Z,10.00
2022-11-25T17:59:42.019Z,10.00
2022-11-25T18:02:18.474Z,10.00
2022-11-25T18:04:45.484Z,10.00
2022-11-25T18:07:12.120Z,10.00
2022-11-25T18:09:38.896Z,9.90
2022-11-25T18:12:12.607Z,9.90
2022-11-25T18:14:42.655Z,9.90
2022-11-25T18:17:15.825Z,10.00
2022-11-25T18:19:42.783Z,10.00
2022-11-25T18:22:13.716Z,10.00
2022-11-25T18:24:40.897Z,9.90
2022-11-25T18:27:28.549Z,9.90
2022-11-25T18:29:56.345Z,9.90
2022-11-25T18:32:24.368Z,10.00
2022-11-25T18:34:51.813Z,9.90
2022-11-25T18:37:18.411Z,9.90
2022-11-25T18:39:45.107Z,10.00
2022-11-25T18:42:26.815Z,10.00
2022-11-25T18:44:56.544Z,10.00
2022-11-25T18:47:23.471Z,10.00
2022-11-25T18:49:55.449Z,10.00
2022-11-25T18:52:23.171Z,10.00
2022-11-25T18:54:49.933Z,10.00
2022-11-25T18:57:16.596Z,10.00
2022-11-25T18:59:44.354Z,10.00
2022-11-25T19:02:16.054Z,10.00
2022-11-25T19:04:42.825Z,10.10
2022-11-25T19:07:09.646Z,10.00
2022-11-25T19:09:36.262Z,10.30
2022-11-25T19:12:03.660Z,10.00
2022-11-25T19:14:35.951Z,9.90
2022-11-25T19:17:07.263Z,9.90
2022-11-25T19:19:33.989Z,9.90
2022-11-25T19:22:01.480Z,9.80
2022-11-25T19:24:28.962Z,9.80
2022-11-25T19:26:57.465Z,9.80
2022-11-25T19:29:41.813Z,9.80
2022-11-25T19:32:25.469Z,9.80
2022-11-25T19:35:02.752Z,9.70
2022-11-25T19:37:32.034Z,9.70
2022-11-25T19:39:58.623Z,9.60
2022-11-25T19:42:25.706Z,9.70
2022-11-25T19:44:55.116Z,9.70
2022-11-25T19:47:26.502Z,9.60
2022-11-25T19:49:56.227Z,9.60
2022-11-25T19:52:29.737Z,9.50
2022-11-25T19:54:56.363Z,9.50
2022-11-25T19:57:25.002Z,9.50
2022-11-25T19:59:51.938Z,9.40
2022-11-25T20:02:24.088Z,9.40
2022-11-25T20:04:54.043Z,9.40
2022-11-25T20:07:21.993Z,9.40
2022-11-25T20:09:51.111Z,9.40
2022-11-25T20:12:24.687Z,9.50
2022-11-25T20:14:51.932Z,9.50
2022-11-25T20:17:37.829Z,9.50
2022-11-25T20:20:18.306Z,9.50
2022-11-25T20:23:00.751Z,9.40
2022-11-25T20:25:28.248Z,9.40
2022-11-25T20:27:55.201Z,9.40
2022-11-25T20:30:26.485Z,9.40
2022-11-25T20:32:53.432Z,9.40
2022-11-25T20:37:53.559Z,9.40
2022-11-25T20:40:23.374Z,9.30
2022-11-25T20:42:51.071Z,9.40
2022-11-25T20:45:23.406Z,9.40
2022-11-25T20:47:51.076Z,9.40
2022-11-25T20:50:19.390Z,9.40
2022-11-25T20:52:48.262Z,9.40
2022-11-25T20:55:24.650Z,9.40
2022-11-25T20:57:52.195Z,9.40
2022-11-25T21:00:27.501Z,9.40
2022-11-25T21:02:57.238Z,9.40
2022-11-25T21:07:51.195Z,9.40
2022-11-25T21:10:39.553Z,9.50
2022-11-25T21:13:13.940Z,9.50
2022-11-25T21:15:40.513Z,9.50
2022-11-25T21:18:07.063Z,9.50
2022-11-25T21:20:33.651Z,9.70
2022-11-25T21:25:33.912Z,9.60
2022-11-25T21:30:30.828Z,9.60
2022-11-25T21:33:00.026Z,9.60
2022-11-25T21:35:35.559Z,9.70
2022-11-25T21:38:04.842Z,9.70
2022-11-25T21:40:39.494Z,9.60
2022-11-25T21:43:17.121Z,9.70
2022-11-25T21:45:47.716Z,9.70
2022-11-25T21:48:22.368Z,9.60
2022-11-25T21:50:49.611Z,9.70
2022-11-25T21:53:16.188Z,9.70
2022-11-25T21:58:19.802Z,9.60
2022-11-25T22:00:50.414Z,9.60
2022-11-25T22:03:18.847Z,9.60
2022-11-25T22:10:42.510Z,9.70
2022-11-25T22:13:17.136Z,9.70
2022-11-25T22:15:44.445Z,9.70
2022-11-25T22:18:21.649Z,9.80
2022-11-25T22:23:21.575Z,9.80
2022-11-25T22:25:50.221Z,9.70
2022-11-25T22:28:20.537Z,9.70
2022-11-25T22:31:05.391Z,9.70
2022-11-25T22:33:37.052Z,9.70
2022-11-25T22:36:04.603Z,9.70
2022-11-25T22:38:31.260Z,9.70
2022-11-25T22:41:01.869Z,9.70
2022-11-25T22:43:34.919Z,9.90
2022-11-25T22:46:03.145Z,9.80
2022-11-25T22:48:37.626Z,9.80
2022-11-25T22:51:05.597Z,9.80
2022-11-25T22:56:00.004Z,9.80
2022-11-25T23:00:55.930Z,9.70
2022-11-25T23:03:29.238Z,9.80
2022-11-25T23:05:56.905Z,9.80
2022-11-25T23:08:26.149Z,9.80
2022-11-25T23:10:53.735Z,9.80
2022-11-25T23:15:53.048Z,9.80
2022-11-25T23:18:37.995Z,9.70
2022-11-25T23:21:06.635Z,9.70
2022-11-25T23:26:00.747Z,9.70
2022-11-25T23:30:56.248Z,9.60
2022-11-25T23:33:36.892Z,9.60
2022-11-25T23:36:13.113Z,9.60
2022-11-25T23:38:46.169Z,9.60
2022-11-25T23:41:19.372Z,9.70
2022-11-25T23:43:46.016Z,9.70
2022-11-25T23:46:15.459Z,9.70
2022-11-25T23:48:44.012Z,9.70
2022-11-25T23:51:10.916Z,9.60
2022-11-25T23:53:39.846Z,9.70
